Time;durP1;ratioP1;P1;durP2;ratioP2;P2;SDS_P1;SDS_P2;PMS_P1;PMS_P2;Temp;Humidity;BMP_temperature;BMP_pressure;BME280_temperature;BME280_humidity;BME280_pressure;Samples;Min_cycle;Max_cycle;Signal;HPM_P1;HPM_P2
2021/03/27 00:00:51;;;;;;;7.50;6.53;;;8.50;77.10;;;;;;5012599;28;20034;-76
2021/03/27 00:03:32;;;;;;;8.73;6.28;;;8.40;77.60;;;;;;4995222;28;20084;-77
2021/03/27 00:06:04;;;;;;;5.83;5.33;;;8.30;77.70;;;;;;5011967;28;20438;-78
2021/03/27 00:08:50;;;;;;;6.03;5.43;;;8.20;77.50;;;;;;5013558;28;20034;-78
2021/03/27 00:12:03;;;;;;;8.43;5.07;;;8.10;77.50;;;;;;5014079;28;20033;-77
2021/03/27 00:14:42;;;;;;;5.20;4.70;;;8.00;77.40;;;;;;5002588;28;20045;-79
2021/03/27 00:17:13;;;;;;;5.43;4.43;;;8.00;77.60;;;;;;4996449;28;20184;-78
2021/03/27 00:20:04;;;;;;;6.10;5.20;;;7.90;77.70;;;;;;4996049;28;20026;-78
2021/03/27 00:22:44;;;;;;;7.70;5.53;;;7.90;77.90;;;;;;5013114;28;20022;-78
2021/03/27 00:25:30;;;;;;;6.03;4.50;;;8.00;78.10;;;;;;4994907;28;20064;-77
2021/03/27 00:28:21;;;;;;;5.07;4.17;;;7.90;77.90;;;;;;5012342;28;20442;-77
2021/03/27 00:31:14;;;;;;;6.40;4.63;;;8.00;78.10;;;;;;5012346;28;20037;-81
2021/03/27 00:33:47;;;;;;;5.82;4.57;;;8.00;78.20;;;;;;4959584;28;20132;-77
2021/03/27 00:36:22;;;;;;;6.00;4.00;;;8.00;78.20;;;;;;4993887;28;20029;-78
2021/03/27 00:38:54;;;;;;;3.07;2.40;;;8.10;78.40;;;;;;5012647;28;20038;-78
2021/03/27 00:41:25;;;;;;;2.90;2.50;;;8.00;78.40;;;;;;5011963;28;20030;-78
2021/03/27 00:44:03;;;;;;;4.90;1.80;;;8.00;78.60;;;;;;5012189;28;20117;-84
2021/03/27 00:46:30;;;;;;;3.43;1.93;;;8.00;78.70;;;;;;4994831;28;20458;-77
2021/03/27 00:48:59;;;;;;;7.17;2.20;;;8.00;78.60;;;;;;5012411;28;20037;-77
2021/03/27 00:51:29;;;;;;;3.87;2.10;;;8.10;78.80;;;;;;5012437;28;20084;-77
2021/03/27 00:54:20;;;;;;;2.63;1.63;;;8.10;78.90;;;;;;5011957;28;20165;-83
2021/03/27 00:57:02;;;;;;;4.00;1.77;;;8.10;78.90;;;;;;4994498;28;20132;-77
2021/03/27 00:59:29;;;;;;;3.93;1.30;;;8.00;79.30;;;;;;5012393;28;20034;-77
2021/03/27 01:01:57;;;;;;;2.47;1.10;;;7.90;79.40;;;;;;4994019;28;20088;-83
2021/03/27 01:04:29;;;;;;;5.90;1.00;;;7.90;79.50;;;;;;5011513;28;20053;-77
2021/03/27 01:07:14;;;;;;;3.53;1.05;;;7.90;79.60;;;;;;5011565;28;20041;-86
2021/03/27 01:09:56;;;;;;;3.47;0.80;;;7.80;79.70;;;;;;4994349;28;20022;-78
2021/03/27 01:12:29;;;;;;;4.23;0.73;;;7.80;80.10;;;;;;5015383;28;20014;-77
2021/03/27 01:15:03;;;;;;;3.37;0.73;;;7.70;80.00;;;;;;4998333;28;20026;-83
2021/03/27 01:17:34;;;;;;;2.90;0.77;;;7.60;80.40;;;;;;5015624;28;20041;-78
2021/03/27 01:20:09;;;;;;;4.77;1.13;;;7.60;80.60;;;;;;5015217;28;20050;-77
2021/03/27 01:22:35;;;;;;;5.00;0.90;;;7.60;80.60;;;;;;4998132;28;20033;-77
2021/03/27 01:25:04;;;;;;;3.70;0.90;;;7.70;80.70;;;;;;5015057;28;20835;-77
2021/03/27 01:27:41;;;;;;;6.27;0.77;;;7.70;80.80;;;;;;5015415;28;20033;-77
2021/03/27 01:30:25;;;;;;;5.57;0.80;;;7.60;81.00;;;;;;5015290;28;20056;-76
2021/03/27 01:32:56;;;;;;;5.30;0.63;;;7.60;81.10;;;;;;5015645;28;20057;-77
2021/03/27 01:35:32;;;;;;;5.50;1.00;;;7.60;81.20;;;;;;5015542;28;20113;-77
2021/03/27 01:38:14;;;;;;;6.80;0.97;;;7.60;81.20;;;;;;4997906;28;20022;-84
2021/03/27 01:41:12;;;;;;;1.87;0.57;;;7.60;81.10;;;;;;4994749;28;20387;-77
2021/03/27 01:43:50;;;;;;;4.90;0.83;;;7.50;81.10;;;;;;4995881;28;20030;-78
2021/03/27 01:46:51;;;;;;;4.40;0.60;;;7.50;81.30;;;;;;4995052;28;20061;-77
2021/03/27 01:49:32;;;;;;;3.17;0.63;;;7.50;81.30;;;;;;4995246;28;20667;-78
2021/03/27 01:52:04;;;;;;;4.30;1.10;;;7.60;81.20;;;;;;4995486;28;20128;-82
2021/03/27 01:54:54;;;;;;;6.00;0.80;;;7.50;81.30;;;;;;4995680;28;20105;-77
2021/03/27 01:57:33;;;;;;;4.40;0.93;;;7.60;81.20;;;;;;4994371;28;20241;-81
2021/03/27 02:00:10;;;;;;;5.10;0.80;;;7.50;81.10;;;;;;5011901;28;20030;-84
2021/03/27 02:03:12;;;;;;;4.80;0.90;;;7.40;81.20;;;;;;5015155;28;20036;-76
2021/03/27 02:05:46;;;;;;;5.13;0.97;;;7.30;81.30;;;;;;5014463;28;20046;-76
2021/03/27 02:08:37;;;;;;;3.97;1.17;;;7.40;81.70;;;;;;4996489;28;20437;-75
2021/03/27 02:11:26;;;;;;;7.00;1.20;;;7.50;81.60;;;;;;5001779;28;20045;-83
2021/03/27 02:14:11;;;;;;;4.90;1.30;;;7.50;81.50;;;;;;4996083;28;20432;-76
2021/03/27 02:16:47;;;;;;;5.30;0.90;;;7.40;81.50;;;;;;5013811;28;20034;-76
2021/03/27 02:19:57;;;;;;;4.37;1.10;;;7.40;81.30;;;;;;5014188;28;20014;-75
2021/03/27 02:22:29;;;;;;;5.27;0.90;;;7.40;81.50;;;;;;4995938;28;20096;-75
2021/03/27 02:25:34;;;;;;;5.30;1.03;;;7.40;81.60;;;;;;5014496;28;20385;-75
2021/03/27 02:28:11;;;;;;;6.33;1.37;;;7.40;81.80;;;;;;5014458;28;20128;-76
2021/03/27 02:30:48;;;;;;;4.90;1.10;;;7.40;81.70;;;;;;4996395;28;20030;-78
2021/03/27 02:33:36;;;;;;;5.33;1.00;;;7.50;81.70;;;;;;5013792;28;20018;-76
2021/03/27 02:36:22;;;;;;;6.63;1.20;;;7.40;81.30;;;;;;4996627;28;20036;-77
2021/03/27 02:39:13;;;;;;;3.10;0.90;;;7.40;81.20;;;;;;4996547;28;20592;-78
2021/03/27 02:42:13;;;;;;;7.23;1.10;;;7.40;81.40;;;;;;5014444;28;20075;-77
2021/03/27 02:44:50;;;;;;;6.57;1.37;;;7.30;81.40;;;;;;4996522;28;20038;-77
2021/03/27 02:47:45;;;;;;;9.47;1.43;;;7.40;81.30;;;;;;4996186;28;20092;-76
2021/03/27 02:50:42;;;;;;;7.20;1.33;;;7.40;81.20;;;;;;5013334;28;20025;-77
2021/03/27 02:53:15;;;;;;;5.40;1.20;;;7.40;81.20;;;;;;4993124;28;20382;-81
2021/03/27 02:55:43;;;;;;;;;;;7.30;81.40;;;;;;4977406;28;20030;-77
2021/03/27 02:58:24;;;;;;;8.90;1.70;;;7.20;81.70;;;;;;4993843;28;19917;-85
2021/03/27 03:01:30;;;;;;;5.77;1.23;;;7.00;81.90;;;;;;4994479;28;20037;-77
2021/03/27 03:04:05;;;;;;;8.77;1.53;;;7.00;82.30;;;;;;4994252;28;20038;-76
2021/03/27 03:07:01;;;;;;;5.53;1.20;;;7.00;82.20;;;;;;4994166;28;20065;-77
2021/03/27 03:09:40;;;;;;;6.83;1.10;;;6.90;82.30;;;;;;4988349;28;20040;-77
2021/03/27 03:12:14;;;;;;;8.40;1.30;;;7.00;83.00;;;;;;4977546;28;20470;-76
2021/03/27 03:14:58;;;;;;;9.40;1.60;;;7.00;82.20;;;;;;4994816;28;20022;-77
2021/03/27 03:17:31;;;;;;;6.60;1.63;;;7.00;82.30;;;;;;4994478;28;20025;-77
2021/03/27 03:20:14;;;;;;;6.43;1.50;;;7.00;82.30;;;;;;4994015;28;20026;-78
2021/03/27 03:22:49;;;;;;;7.47;1.40;;;6.90;82.50;;;;;;4977064;28;20030;-76
2021/03/27 03:25:21;;;;;;;7.20;1.40;;;6.80;82.50;;;;;;4992733;28;20065;-77
2021/03/27 03:28:05;;;;;;;7.57;1.63;;;6.80;82.70;;;;;;4994760;28;20041;-76
2021/03/27 03:30:39;;;;;;;7.27;1.50;;;6.70;82.60;;;;;;4995751;28;20030;-76
2021/03/27 03:33:41;;;;;;;8.23;1.53;;;6.60;82.90;;;;;;5012649;28;20030;-76
2021/03/27 03:36:13;;;;;;;7.17;1.67;;;6.50;83.10;;;;;;5013122;28;20022;-76
2021/03/27 03:39:16;;;;;;;8.95;1.52;;;6.50;83.40;;;;;;5012978;28;20029;-76
2021/03/27 03:42:07;;;;;;;8.70;1.55;;;6.40;83.40;;;;;;4995426;28;20026;-76
2021/03/27 03:44:48;;;;;;;9.23;1.40;;;6.40;83.60;;;;;;4995096;28;20488;-76
2021/03/27 03:47:36;;;;;;;6.20;1.20;;;6.40;83.60;;;;;;4995603;28;20042;-82
2021/03/27 03:50:10;;;;;;;8.90;1.50;;;6.40;83.60;;;;;;5013104;28;20026;-76
2021/03/27 03:53:11;;;;;;;8.07;1.50;;;6.40;83.70;;;;;;5012899;28;20101;-76
2021/03/27 03:55:57;;;;;;;9.90;2.00;;;6.30;83.70;;;;;;5007522;28;20100;-76
2021/03/27 03:58:35;;;;;;;8.00;1.83;;;6.30;83.80;;;;;;5013172;28;20030;-76
2021/03/27 04:01:07;;;;;;;8.37;1.47;;;6.30;83.90;;;;;;5012869;28;20030;-76
2021/03/27 04:03:45;;;;;;;6.30;1.00;;;6.20;84.00;;;;;;5012127;28;20040;-77
2021/03/27 04:06:20;;;;;;;9.50;1.13;;;6.10;84.00;;;;;;4973566;28;20377;-77
2021/03/27 04:08:54;;;;;;;6.03;1.40;;;6.10;84.20;;;;;;4973707;28;20023;-78
2021/03/27 04:11:51;;;;;;;8.53;1.20;;;6.10;84.30;;;;;;4976469;28;20103;-80
2021/03/27 04:14:29;;;;;;;14.30;1.67;;;6.20;84.10;;;;;;4975533;28;20035;-81
2021/03/27 04:17:01;;;;;;;9.47;1.67;;;6.20;83.90;;;;;;4972192;28;20045;-77
2021/03/27 04:19:28;;;;;;;14.38;1.80;;;6.30;83.70;;;;;;4973213;28;20085;-76
2021/03/27 04:22:15;;;;;;;7.80;1.30;;;6.40;83.50;;;;;;4972292;28;20110;-76
2021/03/27 04:24:49;;;;;;;9.60;1.13;;;6.40;83.10;;;;;;4972736;28;20203;-77
2021/03/27 04:27:31;;;;;;;8.13;1.43;;;6.40;83.30;;;;;;4972473;28;20037;-77
2021/03/27 04:30:21;;;;;;;9.57;1.27;;;6.50;83.10;;;;;;4973157;28;20038;-76
2021/03/27 04:33:01;;;;;;;7.40;1.37;;;6.50;82.90;;;;;;4973247;28;20035;-76
2021/03/27 04:35:52;;;;;;;13.03;1.43;;;6.40;82.80;;;;;;4971991;28;20057;-77
2021/03/27 04:38:22;;;;;;;11.50;1.57;;;6.50;82.90;;;;;;4971904;28;20398;-76
2021/03/27 04:41:04;;;;;;;12.60;1.73;;;6.50;82.70;;;;;;4973048;28;20030;-76
2021/03/27 04:43:33;;;;;;;7.47;1.53;;;6.50;82.50;;;;;;4971639;28;20031;-77
2021/03/27 04:46:06;;;;;;;10.23;1.67;;;6.60;82.60;;;;;;4973399;28;20035;-76
2021/03/27 04:49:05;;;;;;;10.60;1.63;;;6.70;82.30;;;;;;4971566;28;20093;-77
2021/03/27 04:51:39;;;;;;;7.27;0.90;;;6.70;82.30;;;;;;4973004;28;20110;-78
2021/03/27 04:54:29;;;;;;;12.83;2.33;;;6.80;82.00;;;;;;4973536;28;20067;-76
2021/03/27 04:57:22;;;;;;;10.23;0.90;;;6.90;82.00;;;;;;4971196;28;20043;-79
2021/03/27 05:00:23;;;;;;;8.73;1.13;;;6.90;81.60;;;;;;4953461;28;20118;-77
2021/03/27 05:03:02;;;;;;;10.47;1.37;;;6.90;81.40;;;;;;4968167;28;20035;-76
2021/03/27 05:05:50;;;;;;;8.67;1.13;;;6.90;81.30;;;;;;4981951;28;20055;-77
2021/03/27 05:08:26;;;;;;;13.83;1.60;;;6.90;81.30;;;;;;4991824;28;20478;-76
2021/03/27 05:11:01;;;;;;;6.93;1.00;;;6.90;81.30;;;;;;4991967;28;20037;-76
2021/03/27 05:13:40;;;;;;;13.70;1.70;;;7.00;81.20;;;;;;4991686;28;20026;-82
2021/03/27 05:16:16;;;;;;;11.20;1.00;;;7.00;81.10;;;;;;4991106;28;20030;-76
2021/03/27 05:18:49;;;;;;;8.80;1.20;;;7.00;80.90;;;;;;4974063;28;20067;-77
2021/03/27 05:21:27;;;;;;;;;;;7.00;80.90;;;;;;4974692;28;20030;-77
2021/03/27 05:24:11;;;;;;;11.13;1.40;;;7.10;80.80;;;;;;4989311;28;20446;-80
2021/03/27 05:26:42;;;;;;;11.13;1.53;;;7.10;80.90;;;;;;5006239;28;20034;-76
2021/03/27 05:29:27;;;;;;;9.97;1.40;;;7.00;80.80;;;;;;4992478;28;20033;-78
2021/03/27 05:32:13;;;;;;;8.60;1.20;;;7.00;81.20;;;;;;5010910;28;20026;-76
2021/03/27 05:34:47;;;;;;;12.70;1.63;;;6.90;81.30;;;;;;4993015;28;20033;-77
2021/03/27 05:37:31;;;;;;;8.70;1.33;;;6.90;81.40;;;;;;4991914;28;20022;-77
2021/03/27 05:39:56;;;;;;;13.67;1.50;;;6.90;81.50;;;;;;4992100;28;20378;-76
2021/03/27 05:42:58;;;;;;;10.83;1.80;;;6.90;81.40;;;;;;4991583;28;20030;-77
2021/03/27 05:45:35;;;;;;;12.73;1.90;;;7.00;81.30;;;;;;4990699;28;20088;-76
2021/03/27 05:48:07;;;;;;;10.90;1.40;;;7.10;81.10;;;;;;4974324;28;20041;-76
2021/03/27 05:50:51;;;;;;;12.13;1.40;;;7.20;81.00;;;;;;4991154;28;20069;-81
2021/03/27 05:53:56;;;;;;;12.20;1.80;;;7.30;80.90;;;;;;4988859;28;20042;-77
2021/03/27 05:56:58;;;;;;;11.43;1.97;;;7.30;80.70;;;;;;4994850;28;20457;-77
2021/03/27 05:59:41;;;;;;;14.13;1.70;;;7.30;80.60;;;;;;5014958;28;20025;-77
2021/03/27 06:02:34;;;;;;;6.67;1.47;;;7.30;81.00;;;;;;5015052;28;20490;-78
2021/03/27 06:05:09;;;;;;;13.15;1.60;;;7.30;81.60;;;;;;5014980;28;20369;-77
2021/03/27 06:07:59;;;;;;;12.63;1.33;;;7.30;81.90;;;;;;5014525;28;20026;-82
2021/03/27 06:10:49;;;;;;;10.33;1.63;;;7.20;82.00;;;;;;5014647;28;20018;-78
2021/03/27 06:13:47;;;;;;;7.93;1.20;;;7.20;82.20;;;;;;4996682;28;20033;-77
2021/03/27 06:16:36;;;;;;;9.47;1.40;;;7.20;82.30;;;;;;5008462;28;20038;-77
2021/03/27 06:19:38;;;;;;;12.80;1.80;;;7.20;82.30;;;;;;5014566;28;20104;-76
2021/03/27 06:22:22;;;;;;;12.13;1.80;;;7.20;82.40;;;;;;5014027;28;20025;-78
2021/03/27 06:25:21;;;;;;;10.33;1.30;;;7.20;82.50;;;;;;5013955;28;20026;-76
2021/03/27 06:28:24;;;;;;;13.73;2.17;;;7.20;82.30;;;;;;4995772;28;20022;-76
2021/03/27 06:31:25;;;;;;;5.80;1.08;;;7.20;82.30;;;;;;4995865;28;20397;-76
2021/03/27 06:34:24;;;;;;;7.17;1.23;;;7.20;82.00;;;;;;4996637;28;20033;-76
2021/03/27 06:37:10;;;;;;;9.67;1.17;;;7.10;82.10;;;;;;4993737;28;20354;-75
2021/03/27 06:40:05;;;;;;;8.03;1.33;;;7.20;82.00;;;;;;4976259;28;20049;-86
2021/03/27 06:42:51;;;;;;;6.80;1.20;;;7.20;81.50;;;;;;4994605;28;20040;-77
2021/03/27 06:45:51;;;;;;;9.47;0.70;;;7.10;80.80;;;;;;4993650;28;20062;-77
2021/03/27 06:48:44;;;;;;;11.20;1.00;;;7.00;80.60;;;;;;5011682;28;20505;-76
2021/03/27 06:51:40;;;;;;;5.50;0.80;;;7.00;80.50;;;;;;4995081;28;20367;-76
2021/03/27 06:54:36;;;;;;;7.47;0.73;;;6.90;80.60;;;;;;4996065;28;20045;-76
2021/03/27 06:57:27;;;;;;;7.73;1.00;;;7.00;80.90;;;;;;5013516;28;20034;-76
2021/03/27 07:00:26;;;;;;;5.50;0.70;;;7.00;80.80;;;;;;4995217;28;20034;-78
2021/03/27 07:03:26;;;;;;;9.67;0.90;;;7.10;80.40;;;;;;4995092;28;20094;-76
2021/03/27 07:06:20;;;;;;;8.07;1.37;;;7.20;80.10;;;;;;5003503;28;20046;-76
2021/03/27 07:09:43;;;;;;;10.70;0.90;;;7.30;79.80;;;;;;5014361;28;20022;-76
2021/03/27 07:12:31;;;;;;;7.30;1.00;;;7.50;79.90;;;;;;4996651;28;20088;-76
2021/03/27 07:15:34;;;;;;;7.73;0.90;;;7.70;79.40;;;;;;4999484;28;20062;-77
2021/03/27 07:18:12;;;;;;;6.60;1.35;;;7.80;79.40;;;;;;5013327;28;20045;-76
2021/03/27 07:21:09;;;;;;;11.90;1.30;;;8.20;78.60;;;;;;5014396;28;20034;-79
2021/03/27 07:23:44;;;;;;;8.90;1.27;;;8.20;77.40;;;;;;4996477;28;20068;-79
2021/03/27 07:26:19;;;;;;;7.80;0.97;;;8.20;77.50;;;;;;4996321;28;20492;-76
2021/03/27 07:28:50;;;;;;;7.23;0.83;;;8.10;77.50;;;;;;5013713;28;20110;-76
2021/03/27 07:31:41;;;;;;;8.20;0.90;;;8.00;77.90;;;;;;5013822;28;20040;-77
2021/03/27 07:34:28;;;;;;;4.80;0.83;;;8.80;79.10;;;;;;4995865;28;20062;-76
2021/03/27 07:37:26;;;;;;;5.47;1.00;;;10.00;74.90;;;;;;4976572;28;20052;-77
2021/03/27 07:40:14;;;;;;;9.07;1.83;;;10.70;71.10;;;;;;4993657;28;20049;-76
2021/03/27 07:43:01;;;;;;;7.27;1.13;;;11.00;69.10;;;;;;5010338;28;20478;-76
2021/03/27 07:45:45;;;;;;;8.00;1.60;;;11.50;67.80;;;;;;4994688;28;20048;-76
2021/03/27 07:48:26;;;;;;;7.30;1.93;;;11.80;65.50;;;;;;5011645;28;20038;-78
2021/03/27 07:51:07;;;;;;;10.67;2.03;;;11.80;64.80;;;;;;4993629;28;20053;-78
2021/03/27 07:54:02;;;;;;;9.23;1.30;;;11.50;63.90;;;;;;4996009;28;20037;-77
2021/03/27 07:56:41;;;;;;;9.70;1.80;;;11.20;65.40;;;;;;5013939;28;20014;-77
2021/03/27 07:59:33;;;;;;;9.53;1.87;;;11.60;65.70;;;;;;5017416;28;20036;-77
2021/03/27 08:02:22;;;;;;;8.73;2.50;;;12.10;63.80;;;;;;4992349;28;20096;-80
2021/03/27 08:05:42;;;;;;;11.27;3.23;;;12.80;63.30;;;;;;4993868;28;20161;-80
2021/03/27 08:08:32;;;;;;;8.63;2.13;;;13.70;61.10;;;;;;4931648;29;20175;-77
2021/03/27 08:11:16;;;;;;;9.17;3.87;;;14.20;57.10;;;;;;4976515;28;20125;-79
2021/03/27 08:14:13;;;;;;;10.60;2.67;;;14.20;57.60;;;;;;4992841;28;20127;-77
2021/03/27 08:17:09;;;;;;;10.18;3.40;;;14.60;56.50;;;;;;4999822;28;20022;-77
2021/03/27 08:19:53;;;;;;;14.07;4.40;;;14.90;55.60;;;;;;4975080;28;20056;-77
2021/03/27 08:22:51;;;;;;;18.75;6.15;;;15.10;53.40;;;;;;4995352;28;20030;-76
2021/03/27 08:25:39;;;;;;;11.75;2.25;;;14.70;53.40;;;;;;4995715;28;20367;-76
2021/03/27 08:28:29;;;;;;;12.40;2.83;;;13.80;54.20;;;;;;5008299;28;20026;-76
2021/03/27 08:31:14;;;;;;;11.80;2.83;;;13.10;56.80;;;;;;4991688;28;20026;-77
2021/03/27 08:34:10;;;;;;;12.27;3.00;;;12.70;57.50;;;;;;4987866;28;20533;-77
2021/03/27 08:37:06;;;;;;;13.33;4.47;;;12.20;58.50;;;;;;5011110;28;20013;-77
2021/03/27 08:39:35;;;;;;;11.93;3.07;;;11.80;60.00;;;;;;4992199;28;20069;-77
2021/03/27 08:42:08;;;;;;;9.37;2.77;;;11.40;60.10;;;;;;4974378;28;20129;-77
2021/03/27 08:45:01;;;;;;;11.27;3.15;;;11.60;59.80;;;;;;4986356;28;20038;-77
2021/03/27 08:47:40;;;;;;;11.70;3.28;;;11.90;59.40;;;;;;4991877;28;20058;-77
2021/03/27 08:50:27;;;;;;;12.67;4.30;;;12.50;58.70;;;;;;4990175;28;20104;-76
2021/03/27 08:53:17;;;;;;;17.07;7.40;;;13.40;55.90;;;;;;5009807;28;20097;-80
2021/03/27 08:56:20;;;;;;;18.77;6.27;;;14.20;55.00;;;;;;4989245;28;20048;-76
2021/03/27 08:58:50;;;;;;;12.52;5.30;;;14.30;51.30;;;;;;5009578;28;20050;-75
2021/03/27 09:01:50;;;;;;;12.15;3.72;;;14.10;52.90;;;;;;5009633;28;20030;-76
2021/03/27 09:04:30;;;;;;;11.35;2.97;;;14.50;52.10;;;;;;4992120;28;20050;-75
2021/03/27 09:07:32;;;;;;;12.90;3.20;;;15.20;50.00;;;;;;4983464;28;20045;-82
2021/03/27 09:10:05;;;;;;;12.52;4.07;;;15.50;48.00;;;;;;4957496;28;20078;-76
2021/03/27 09:12:47;;;;;;;11.18;2.97;;;15.40;49.00;;;;;;5007249;28;20038;-76
2021/03/27 09:15:24;;;;;;;10.60;1.90;;;15.00;49.80;;;;;;4992139;28;20280;-76
2021/03/27 09:18:02;;;;;;;8.35;1.60;;;14.90;49.40;;;;;;5009959;28;20509;-74
2021/03/27 09:20:42;;;;;;;8.15;2.17;;;14.60;48.40;;;;;;5010351;28;20060;-75
2021/03/27 09:23:17;;;;;;;10.73;2.00;;;14.20;49.20;;;;;;5009617;28;20104;-75
2021/03/27 09:26:17;;;;;;;8.23;2.17;;;13.70;50.50;;;;;;4992668;28;20096;-75
2021/03/27 09:29:27;;;;;;;10.20;2.42;;;13.20;50.40;;;;;;5000300;28;20034;-75
2021/03/27 09:32:01;;;;;;;10.00;2.07;;;12.90;51.70;;;;;;4928537;29;20038;-77
2021/03/27 09:34:33;;;;;;;10.57;2.13;;;12.60;52.60;;;;;;4933231;29;20042;-77
2021/03/27 09:37:36;;;;;;;13.20;2.90;;;12.10;53.50;;;;;;4978060;28;20050;-83
2021/03/27 09:40:21;;;;;;;16.45;4.60;;;11.90;54.40;;;;;;5011496;28;20108;-77
2021/03/27 09:42:53;;;;;;;13.17;3.80;;;12.00;54.70;;;;;;4976715;28;20034;-77
2021/03/27 09:45:18;;;;;;;9.87;2.97;;;12.20;53.60;;;;;;4976308;28;20026;-79
2021/03/27 09:48:30;;;;;;;8.93;3.23;;;12.60;53.10;;;;;;4977180;28;20030;-75
2021/03/27 09:51:14;;;;;;;12.43;4.65;;;13.70;51.40;;;;;;4979204;28;20038;-75
2021/03/27 09:53:47;;;;;;;11.32;3.35;;;15.00;49.90;;;;;;4993802;28;20034;-76
2021/03/27 09:57:03;;;;;;;12.85;4.05;;;16.00;48.30;;;;;;4992928;28;20026;-76
2021/03/27 09:59:44;;;;;;;8.00;3.35;;;16.70;45.70;;;;;;4959197;28;20041;-75
2021/03/27 10:02:21;;;;;;;10.30;3.47;;;17.00;43.40;;;;;;4994249;28;20037;-74
2021/03/27 10:04:53;;;;;;;10.35;3.75;;;17.40;43.10;;;;;;5013038;28;20436;-74
2021/03/27 10:07:40;;;;;;;5.85;2.42;;;17.80;42.20;;;;;;4995029;28;20045;-74
2021/03/27 10:10:24;;;;;;;7.90;3.25;;;18.20;42.30;;;;;;5012624;28;20149;-75
2021/03/27 10:12:58;;;;;;;6.30;1.88;;;18.20;41.70;;;;;;5013829;28;20137;-75
2021/03/27 10:15:32;;;;;;;9.23;2.78;;;18.00;39.30;;;;;;4995675;28;20030;-75
2021/03/27 10:18:10;;;;;;;10.65;2.20;;;18.00;40.30;;;;;;5005761;28;20027;-75
2021/03/27 10:20:51;;;;;;;8.45;1.88;;;18.30;39.70;;;;;;5012318;28;20025;-74
2021/03/27 10:23:37;;;;;;;6.82;1.52;;;18.40;39.00;;;;;;5014405;28;20030;-73
2021/03/27 10:26:29;;;;;;;6.70;2.22;;;18.30;38.20;;;;;;5014576;28;20032;-74
2021/03/27 10:32:30;;;;;;;8.85;3.05;;;18.10;36.80;;;;;;5014722;28;20108;-77
2021/03/27 10:35:28;;;;;;;6.07;2.05;;;18.00;36.30;;;;;;5015003;28;20037;-76
2021/03/27 10:38:20;;;;;;;4.53;1.02;;;18.10;35.80;;;;;;5011312;28;20419;-75
2021/03/27 10:41:12;;;;;;;4.43;1.13;;;18.40;35.00;;;;;;5008565;28;20072;-75
2021/03/27 10:43:47;;;;;;;7.70;1.50;;;18.20;35.10;;;;;;4995942;28;20040;-76
2021/03/27 10:46:44;;;;;;;8.35;2.50;;;17.90;35.70;;;;;;5014095;28;20532;-75
2021/03/27 10:49:10;;;;;;;8.25;2.05;;;18.20;36.30;;;;;;4995315;28;20034;-75
2021/03/27 10:51:59;;;;;;;8.38;3.00;;;17.90;35.50;;;;;;4996282;28;20037;-75
2021/03/27 10:55:02;;;;;;;6.63;1.67;;;17.50;36.20;;;;;;5014474;28;20104;-75
2021/03/27 10:57:58;;;;;;;14.43;1.60;;;17.00;37.60;;;;;;5013577;28;20103;-74
2021/03/27 11:00:42;;;;;;;6.75;0.70;;;16.90;39.20;;;;;;5012665;28;20040;-74
2021/03/27 11:03:45;;;;;;;4.78;0.77;;;16.90;39.00;;;;;;5012302;28;20355;-79
2021/03/27 11:06:29;;;;;;;7.82;0.70;;;16.80;39.40;;;;;;5010036;28;20532;-80
2021/03/27 11:09:07;;;;;;;4.45;0.93;;;16.90;39.70;;;;;;4993932;28;20033;-74
2021/03/27 11:11:51;;;;;;;6.07;0.93;;;16.90;40.60;;;;;;5011824;28;20068;-75
2021/03/27 11:14:35;;;;;;;5.90;0.70;;;17.00;40.50;;;;;;5011435;28;20038;-74
2021/03/27 11:17:38;;;;;;;6.95;0.60;;;17.20;41.20;;;;;;5011636;28;20034;-75
2021/03/27 11:20:30;;;;;;;9.13;1.02;;;17.10;40.60;;;;;;4994012;28;20022;-75
2021/03/27 11:23:14;;;;;;;10.23;1.00;;;17.30;40.10;;;;;;4994291;28;20030;-74
2021/03/27 11:26:17;;;;;;;4.75;0.90;;;17.50;39.40;;;;;;5011932;28;20069;-74
2021/03/27 11:28:42;;;;;;;7.70;0.98;;;17.70;39.60;;;;;;4994897;28;20092;-73
2021/03/27 11:31:08;;;;;;;3.83;0.95;;;17.90;37.60;;;;;;4993921;28;20026;-75
2021/03/27 11:33:36;;;;;;;8.80;1.05;;;18.00;37.20;;;;;;4993514;28;20589;-74
2021/03/27 11:36:11;;;;;;;5.78;0.70;;;18.00;36.00;;;;;;5010471;28;20133;-73
2021/03/27 11:38:58;;;;;;;5.55;0.70;;;18.10;36.10;;;;;;5010563;28;20036;-74
2021/03/27 11:41:33;;;;;;;4.95;0.70;;;17.90;35.70;;;;;;4993718;28;20101;-74
2021/03/27 11:44:38;;;;;;;4.22;0.82;;;17.50;36.20;;;;;;5010823;28;20034;-73
2021/03/27 11:47:28;;;;;;;3.40;0.70;;;17.40;35.80;;;;;;4993581;28;20141;-73
2021/03/27 11:50:07;;;;;;;8.15;1.02;;;17.60;34.90;;;;;;5011058;28;20033;-75
2021/03/27 11:53:06;;;;;;;5.60;0.73;;;17.60;35.50;;;;;;4992279;28;20033;-74
2021/03/27 11:55:38;;;;;;;4.00;0.55;;;17.70;33.70;;;;;;5009524;28;20038;-74
2021/03/27 11:58:26;;;;;;;5.65;0.80;;;17.40;34.30;;;;;;4993474;28;20547;-73
2021/03/27 12:01:08;;;;;;;3.75;0.60;;;17.00;34.40;;;;;;4987294;28;20041;-73
2021/03/27 12:03:40;;;;;;;5.40;0.60;;;16.50;35.30;;;;;;4997738;28;20034;-75
2021/03/27 12:06:32;;;;;;;5.93;0.60;;;16.40;34.80;;;;;;5011393;28;20054;-75
2021/03/27 12:09:17;;;;;;;2.85;0.50;;;16.50;34.30;;;;;;5004649;28;20042;-75
2021/03/27 12:11:55;;;;;;;5.63;0.50;;;16.60;33.30;;;;;;4992563;28;20026;-75
2021/03/27 12:14:43;;;;;;;2.30;0.40;;;16.50;34.00;;;;;;5010436;28;20104;-75
2021/03/27 12:17:58;;;;;;;4.15;0.40;;;16.70;33.50;;;;;;4993113;28;20026;-76
2021/03/27 12:20:32;;;;;;;6.80;0.50;;;16.80;32.40;;;;;;5006363;28;20065;-73
2021/03/27 12:23:22;;;;;;;4.80;0.60;;;17.00;32.00;;;;;;4993032;28;20462;-74
2021/03/27 12:25:58;;;;;;;4.72;0.73;;;16.80;32.80;;;;;;4993266;28;20056;-73
2021/03/27 12:28:38;;;;;;;4.00;0.98;;;16.70;33.60;;;;;;4992384;28;20022;-75
2021/03/27 12:31:32;;;;;;;5.40;0.70;;;16.60;34.00;;;;;;5009735;28;20076;-73
2021/03/27 12:34:26;;;;;;;3.38;0.63;;;16.30;33.60;;;;;;5023671;28;20030;-75
2021/03/27 12:37:01;;;;;;;2.53;0.50;;;16.00;33.10;;;;;;5030115;28;20109;-74
2021/03/27 12:39:44;;;;;;;3.63;0.75;;;15.70;32.70;;;;;;5029534;28;20029;-75
2021/03/27 12:42:18;;;;;;;;;;;15.40;33.10;;;;;;5010104;28;20025;-74
2021/03/27 12:44:57;;;;;;;4.63;0.68;;;15.30;33.40;;;;;;5009656;28;20373;-74
2021/03/27 12:47:51;;;;;;;4.50;0.93;;;15.00;34.00;;;;;;5009564;28;20609;-80
2021/03/27 12:50:22;;;;;;;7.10;2.42;;;14.80;34.40;;;;;;4973552;28;20062;-74
2021/03/27 12:52:54;;;;;;;6.60;1.80;;;14.70;35.40;;;;;;4999549;28;20034;-76
2021/03/27 12:55:38;;;;;;;6.45;1.58;;;14.50;35.80;;;;;;5003445;28;20069;-75
2021/03/27 12:58:25;;;;;;;5.60;1.48;;;14.40;36.00;;;;;;5000662;28;20054;-74
2021/03/27 13:01:20;;;;;;;3.80;1.10;;;14.70;36.30;;;;;;5001003;28;20027;-77
2021/03/27 13:04:22;;;;;;;5.22;1.42;;;14.70;35.90;;;;;;4987077;28;20528;-75
2021/03/27 13:07:05;;;;;;;6.03;1.50;;;14.80;36.40;;;;;;4993284;28;20180;-75
2021/03/27 13:09:49;;;;;;;;;;;14.90;36.70;;;;;;5013887;28;20041;-77
2021/03/27 13:12:22;;;;;;;7.07;2.13;;;15.00;36.50;;;;;;5014115;28;19909;-75
2021/03/27 13:14:53;;;;;;;5.85;2.03;;;15.10;36.80;;;;;;4995966;28;20033;-75
2021/03/27 13:17:34;;;;;;;7.30;2.38;;;15.40;36.10;;;;;;5013950;28;20022;-75
2021/03/27 13:20:21;;;;;;;7.32;2.25;;;15.40;34.30;;;;;;5014228;28;20095;-74
2021/03/27 13:22:57;;;;;;;8.48;1.80;;;15.20;34.80;;;;;;4980063;28;20021;-75
2021/03/27 13:25:29;;;;;;;6.75;1.30;;;15.30;34.70;;;;;;5014028;28;20044;-76
2021/03/27 13:28:13;;;;;;;6.03;1.30;;;15.50;34.90;;;;;;5013184;28;20030;-76
2021/03/27 13:31:00;;;;;;;6.53;1.60;;;15.70;35.60;;;;;;4993461;28;20614;-76
2021/03/27 13:33:28;;;;;;;4.80;1.00;;;15.90;35.10;;;;;;4985549;28;20100;-75
2021/03/27 13:36:13;;;;;;;4.63;1.13;;;15.70;34.70;;;;;;5012913;28;20462;-77
2021/03/27 13:39:17;;;;;;;5.88;0.98;;;15.80;34.70;;;;;;4995225;28;20061;-75
2021/03/27 13:42:12;;;;;;;5.50;0.95;;;15.80;34.90;;;;;;5012770;28;20088;-75
2021/03/27 13:44:49;;;;;;;5.25;1.23;;;15.60;35.00;;;;;;4994325;28;20057;-75
2021/03/27 13:47:31;;;;;;;7.68;1.52;;;15.30;36.00;;;;;;5003796;28;20081;-75
2021/03/27 13:50:24;;;;;;;7.25;1.10;;;15.10;35.90;;;;;;4996200;28;20044;-74
2021/03/27 13:53:01;;;;;;;8.38;0.70;;;14.80;35.60;;;;;;4992666;28;20045;-75
2021/03/27 13:55:51;;;;;;;4.95;0.80;;;14.70;35.60;;;;;;4976334;28;20430;-75
2021/03/27 13:58:22;;;;;;;4.97;0.70;;;14.80;35.80;;;;;;4993921;28;20489;-75
2021/03/27 14:00:56;;;;;;;4.35;0.65;;;14.90;35.90;;;;;;4979115;28;20018;-74
2021/03/27 14:03:25;;;;;;;4.60;0.70;;;14.80;36.00;;;;;;5010536;28;20033;-75
2021/03/27 14:05:59;;;;;;;4.88;1.70;;;14.70;36.20;;;;;;4988133;28;20460;-75
2021/03/27 14:09:08;;;;;;;8.55;2.42;;;14.70;36.40;;;;;;4982714;28;20031;-74
2021/03/27 14:12:05;;;;;;;7.53;2.90;;;14.70;36.20;;;;;;4973488;28;20114;-78
2021/03/27 14:14:35;;;;;;;10.30;3.22;;;14.50;36.60;;;;;;4973985;28;20236;-74
2021/03/27 14:17:19;;;;;;;8.95;3.53;;;14.40;37.00;;;;;;4971463;28;20063;-74
2021/03/27 14:20:17;;;;;;;9.30;4.20;;;14.20;36.90;;;;;;4971759;28;20467;-74
2021/03/27 14:22:58;;;;;;;13.52;5.63;;;14.10;36.80;;;;;;4971729;28;20085;-75